sensor_id;sensor_type;location;lat;lon;timestamp;pressure;altitude;pressure_sealevel;temperature;humidity
48364;BME280;34170;54.364;18.582;2023-09-19T00:00:58;99306.56;;;21.22;89.65
48364;BME280;34170;54.364;18.582;2023-09-19T00:03:38;99307.50;;;21.39;88.91
48364;BME280;34170;54.364;18.582;2023-09-19T00:06:07;99312.13;;;21.50;88.16
48364;BME280;34170;54.364;18.582;2023-09-19T00:08:35;99312.72;;;21.52;87.79
48364;BME280;34170;54.364;18.582;2023-09-19T00:11:03;99309.88;;;21.47;87.68
48364;BME280;34170;54.364;18.582;2023-09-19T00:13:32;99315.69;;;21.63;87.31
48364;BME280;34170;54.364;18.582;2023-09-19T00:16:08;99311.97;;;21.69;86.62
48364;BME280;34170;54.364;18.582;2023-09-19T00:18:38;99314.06;;;21.50;87.71
48364;BME280;34170;54.364;18.582;2023-09-19T00:21:05;99312.84;;;21.58;87.21
48364;BME280;34170;54.364;18.582;2023-09-19T00:23:34;99314.13;;;21.67;86.56
48364;BME280;34170;54.364;18.582;2023-09-19T00:26:01;99313.78;;;21.63;86.74
48364;BME280;34170;54.364;18.582;2023-09-19T00:28:29;99308.19;;;21.70;86.79
48364;BME280;34170;54.364;18.582;2023-09-19T00:30:58;99313.75;;;21.75;85.80
48364;BME280;34170;54.364;18.582;2023-09-19T00:33:28;99305.44;;;21.70;86.59
48364;BME280;34170;54.364;18.582;2023-09-19T00:35:59;99322.56;;;21.77;86.20
48364;BME280;34170;54.364;18.582;2023-09-19T00:38:29;99313.19;;;21.73;86.72
48364;BME280;34170;54.364;18.582;2023-09-19T00:40:57;99317.56;;;21.74;86.36
48364;BME280;34170;54.364;18.582;2023-09-19T00:43:27;99311.16;;;21.68;86.96
48364;BME280;34170;54.364;18.582;2023-09-19T00:45:56;99322.31;;;21.67;88.17
48364;BME280;34170;54.364;18.582;2023-09-19T00:48:25;99308.66;;;21.67;88.40
48364;BME280;34170;54.364;18.582;2023-09-19T00:50:57;99304.63;;;21.69;88.39
48364;BME280;34170;54.364;18.582;2023-09-19T00:53:25;99309.69;;;21.78;89.01
48364;BME280;34170;54.364;18.582;2023-09-19T00:55:55;99311.19;;;21.85;88.48
48364;BME280;34170;54.364;18.582;2023-09-19T00:58:23;99300.94;;;21.93;88.08
48364;BME280;34170;54.364;18.582;2023-09-19T01:00:51;99298.72;;;21.89;88.40
48364;BME280;34170;54.364;18.582;2023-09-19T01:03:20;99307.31;;;21.81;89.10
48364;BME280;34170;54.364;18.582;2023-09-19T01:05:50;99302.31;;;21.78;89.80
48364;BME280;34170;54.364;18.582;2023-09-19T01:08:19;99286.50;;;21.80;89.74
48364;BME280;34170;54.364;18.582;2023-09-19T01:10:52;99292.91;;;21.86;90.01
48364;BME280;34170;54.364;18.582;2023-09-19T01:13:34;99280.75;;;21.82;89.61
48364;BME280;34170;54.364;18.582;2023-09-19T01:16:36;99278.53;;;21.79;90.02
48364;BME280;34170;54.364;18.582;2023-09-19T01:19:20;99276.41;;;21.69;91.50
48364;BME280;34170;54.364;18.582;2023-09-19T01:22:00;99275.47;;;21.63;93.16
48364;BME280;34170;54.364;18.582;2023-09-19T01:30:36;99285.28;;;21.24;97.24
48364;BME280;34170;54.364;18.582;2023-09-19T01:33:07;99292.53;;;21.06;99.26
48364;BME280;34170;54.364;18.582;2023-09-19T01:35:35;99284.47;;;21.23;98.13
48364;BME280;34170;54.364;18.582;2023-09-19T01:38:06;99283.00;;;21.21;98.54
48364;BME280;34170;54.364;18.582;2023-09-19T01:40:42;99279.69;;;21.19;98.50
48364;BME280;34170;54.364;18.582;2023-09-19T01:43:27;99283.00;;;21.21;99.81
48364;BME280;34170;54.364;18.582;2023-09-19T01:46:19;99283.53;;;21.18;99.52
48364;BME280;34170;54.364;18.582;2023-09-19T01:48:53;99284.66;;;21.33;99.02
48364;BME280;34170;54.364;18.582;2023-09-19T01:54:19;99276.56;;;21.39;98.85
48364;BME280;34170;54.364;18.582;2023-09-19T01:57:05;99286.34;;;21.46;99.39
48364;BME280;34170;54.364;18.582;2023-09-19T01:59:52;99275.16;;;21.36;100.00
48364;BME280;34170;54.364;18.582;2023-09-19T02:02:21;99274.47;;;21.29;100.00
48364;BME280;34170;54.364;18.582;2023-09-19T02:04:50;99272.78;;;21.28;100.00
48364;BME280;34170;54.364;18.582;2023-09-19T02:07:18;99268.88;;;21.24;100.00
48364;BME280;34170;54.364;18.582;2023-09-19T02:09:45;99269.97;;;20.99;100.00
48364;BME280;34170;54.364;18.582;2023-09-19T02:12:15;99255.47;;;20.87;100.00
48364;BME280;34170;54.364;18.582;2023-09-19T02:14:43;99262.97;;;20.91;100.00
48364;BME280;34170;54.364;18.582;2023-09-19T02:17:10;99259.03;;;20.75;100.00
48364;BME280;34170;54.364;18.582;2023-09-19T02:19:39;99252.16;;;20.85;100.00
48364;BME280;34170;54.364;18.582;2023-09-19T02:22:08;99254.28;;;20.83;100.00
48364;BME280;34170;54.364;18.582;2023-09-19T02:24:38;99260.22;;;20.80;100.00
48364;BME280;34170;54.364;18.582;2023-09-19T02:27:05;99247.66;;;20.79;100.00
48364;BME280;34170;54.364;18.582;2023-09-19T02:29:34;99250.50;;;20.84;100.00
48364;BME280;34170;54.364;18.582;2023-09-19T02:32:02;99248.47;;;20.91;100.00
48364;BME280;34170;54.364;18.582;2023-09-19T02:34:32;99252.25;;;20.78;100.00
48364;BME280;34170;54.364;18.582;2023-09-19T02:36:59;99246.19;;;20.76;100.00
48364;BME280;34170;54.364;18.582;2023-09-19T02:39:27;99250.59;;;20.65;100.00
48364;BME280;34170;54.364;18.582;2023-09-19T02:41:56;99248.00;;;20.82;100.00
48364;BME280;34170;54.364;18.582;2023-09-19T02:44:23;99248.56;;;20.72;100.00
48364;BME280;34170;54.364;18.582;2023-09-19T02:46:51;99248.59;;;20.84;100.00
48364;BME280;34170;54.364;18.582;2023-09-19T02:49:18;99235.03;;;20.78;100.00
48364;BME280;34170;54.364;18.582;2023-09-19T02:51:46;99246.69;;;20.61;100.00
48364;BME280;34170;54.364;18.582;2023-09-19T02:54:15;99235.78;;;20.73;100.00
48364;BME280;34170;54.364;18.582;2023-09-19T02:56:43;99238.31;;;20.56;100.00
48364;BME280;34170;54.364;18.582;2023-09-19T02:59:11;99228.38;;;20.62;100.00
48364;BME280;34170;54.364;18.582;2023-09-19T03:01:38;99226.00;;;20.65;100.00
48364;BME280;34170;54.364;18.582;2023-09-19T03:04:06;99213.06;;;20.61;100.00
48364;BME280;34170;54.364;18.582;2023-09-19T03:06:34;99223.50;;;20.64;100.00
48364;BME280;34170;54.364;18.582;2023-09-19T03:09:02;99228.09;;;20.40;100.00
48364;BME280;34170;54.364;18.582;2023-09-19T03:11:33;99212.56;;;19.86;100.00
48364;BME280;34170;54.364;18.582;2023-09-19T03:14:01;99218.31;;;20.08;100.00
48364;BME280;34170;54.364;18.582;2023-09-19T03:16:28;99212.53;;;20.16;100.00
48364;BME280;34170;54.364;18.582;2023-09-19T03:18:58;99208.59;;;20.12;100.00
48364;BME280;34170;54.364;18.582;2023-09-19T03:21:29;99199.81;;;20.22;100.00
48364;BME280;34170;54.364;18.582;2023-09-19T03:23:58;99211.97;;;20.38;100.00
48364;BME280;34170;54.364;18.582;2023-09-19T03:26:26;99200.69;;;20.34;100.00
48364;BME280;34170;54.364;18.582;2023-09-19T03:28:54;99189.97;;;20.33;100.00
48364;BME280;34170;54.364;18.582;2023-09-19T03:31:21;99199.50;;;20.30;100.00
48364;BME280;34170;54.364;18.582;2023-09-19T03:33:49;99202.09;;;20.25;100.00
48364;BME280;34170;54.364;18.582;2023-09-19T03:36:16;99204.38;;;20.28;100.00
48364;BME280;34170;54.364;18.582;2023-09-19T03:38:44;99206.25;;;20.28;100.00
48364;BME280;34170;54.364;18.582;2023-09-19T03:41:12;99201.38;;;20.30;100.00
48364;BME280;34170;54.364;18.582;2023-09-19T03:43:42;99197.47;;;20.37;100.00
48364;BME280;34170;54.364;18.582;2023-09-19T03:46:10;99194.25;;;20.41;100.00
48364;BME280;34170;54.364;18.582;2023-09-19T03:48:41;99195.81;;;20.36;100.00
48364;BME280;34170;54.364;18.582;2023-09-19T03:51:09;99196.50;;;20.20;100.00
48364;BME280;34170;54.364;18.582;2023-09-19T03:53:38;99191.28;;;20.07;100.00
48364;BME280;34170;54.364;18.582;2023-09-19T03:56:05;99188.66;;;20.12;100.00
48364;BME280;34170;54.364;18.582;2023-09-19T03:58:33;99186.13;;;19.98;100.00
48364;BME280;34170;54.364;18.582;2023-09-19T04:01:05;99180.09;;;19.96;100.00
48364;BME280;34170;54.364;18.582;2023-09-19T04:03:34;99192.16;;;19.89;100.00
48364;BME280;34170;54.364;18.582;2023-09-19T04:06:13;99182.53;;;19.86;100.00
48364;BME280;34170;54.364;18.582;2023-09-19T04:08:42;99181.50;;;19.87;100.00
48364;BME280;34170;54.364;18.582;2023-09-19T04:11:11;99169.09;;;19.73;100.00
48364;BME280;34170;54.364;18.582;2023-09-19T04:13:39;99167.41;;;19.72;100.00
48364;BME280;34170;54.364;18.582;2023-09-19T04:16:07;99165.50;;;19.72;100.00
48364;BME280;34170;54.364;18.582;2023-09-19T04:18:34;99183.63;;;19.67;100.00
48364;BME280;34170;54.364;18.582;2023-09-19T04:21:05;99190.03;;;19.42;100.00
48364;BME280;34170;54.364;18.582;2023-09-19T04:23:34;99182.09;;;18.66;100.00
48364;BME280;34170;54.364;18.582;2023-09-19T04:26:01;99176.41;;;18.50;100.00
48364;BME280;34170;54.364;18.582;2023-09-19T04:28:32;99185.34;;;18.32;100.00
48364;BME280;34170;54.364;18.582;2023-09-19T04:31:02;99183.59;;;18.44;100.00
48364;BME280;34170;54.364;18.582;2023-09-19T04:33:29;99178.25;;;18.31;100.00
48364;BME280;34170;54.364;18.582;2023-09-19T04:35:57;99185.75;;;18.35;100.00
48364;BME280;34170;54.364;18.582;2023-09-19T04:38:34;99184.81;;;18.23;100.00
48364;BME280;34170;54.364;18.582;2023-09-19T04:41:01;99189.91;;;18.38;100.00
48364;BME280;34170;54.364;18.582;2023-09-19T04:43:29;99181.28;;;18.41;100.00
48364;BME280;34170;54.364;18.582;2023-09-19T04:45:57;99189.50;;;18.59;100.00
48364;BME280;34170;54.364;18.582;2023-09-19T04:48:28;99192.66;;;18.56;100.00
48364;BME280;34170;54.364;18.582;2023-09-19T04:50:56;99201.16;;;18.41;100.00
48364;BME280;34170;54.364;18.582;2023-09-19T04:53:24;99194.16;;;18.52;100.00
48364;BME280;34170;54.364;18.582;2023-09-19T04:55:51;99197.31;;;18.49;100.00
48364;BME280;34170;54.364;18.582;2023-09-19T04:58:41;99212.09;;;18.35;100.00
48364;BME280;34170;54.364;18.582;2023-09-19T05:01:09;99207.41;;;18.23;100.00
48364;BME280;34170;54.364;18.582;2023-09-19T05:03:38;99214.00;;;18.34;100.00
48364;BME280;34170;54.364;18.582;2023-09-19T05:06:06;99206.75;;;18.28;100.00
48364;BME280;34170;54.364;18.582;2023-09-19T05:08:34;99224.28;;;18.32;100.00
48364;BME280;34170;54.364;18.582;2023-09-19T05:11:02;99222.94;;;18.41;100.00
48364;BME280;34170;54.364;18.582;2023-09-19T05:13:29;99213.59;;;18.56;100.00
48364;BME280;34170;54.364;18.582;2023-09-19T05:16:00;99214.28;;;18.26;100.00
48364;BME280;34170;54.364;18.582;2023-09-19T05:18:30;99218.94;;;18.19;100.00
48364;BME280;34170;54.364;18.582;2023-09-19T05:21:02;99200.19;;;18.10;100.00
48364;BME280;34170;54.364;18.582;2023-09-19T05:23:29;99208.59;;;18.53;100.00
48364;BME280;34170;54.364;18.582;2023-09-19T05:25:58;99201.81;;;18.12;100.00
48364;BME280;34170;54.364;18.582;2023-09-19T05:28:27;99186.66;;;17.97;100.00
48364;BME280;34170;54.364;18.582;2023-09-19T05:30:54;99190.81;;;18.06;100.00
48364;BME280;34170;54.364;18.582;2023-09-19T05:33:22;99192.09;;;17.97;100.00
48364;BME280;34170;54.364;18.582;2023-09-19T05:35:50;99202.84;;;18.42;100.00
48364;BME280;34170;54.364;18.582;2023-09-19T05:38:17;99214.66;;;18.29;100.00
48364;BME280;34170;54.364;18.582;2023-09-19T05:40:46;99222.16;;;18.34;100.00
48364;BME280;34170;54.364;18.582;2023-09-19T05:43:14;99211.22;;;18.66;100.00
48364;BME280;34170;54.364;18.582;2023-09-19T05:45:42;99216.72;;;18.84;100.00
48364;BME280;34170;54.364;18.582;2023-09-19T05:48:11;99221.19;;;18.97;100.00
48364;BME280;34170;54.364;18.582;2023-09-19T05:50:42;99231.50;;;19.14;100.00
48364;BME280;34170;54.364;18.582;2023-09-19T05:53:10;99228.75;;;19.32;100.00
48364;BME280;34170;54.364;18.582;2023-09-19T05:55:42;99228.97;;;19.49;100.00
48364;BME280;34170;54.364;18.582;2023-09-19T05:58:10;99213.72;;;19.60;100.00
48364;BME280;34170;54.364;18.582;2023-09-19T06:00:37;99221.03;;;19.78;100.00
48364;BME280;34170;54.364;18.582;2023-09-19T06:03:07;99225.22;;;20.11;100.00
48364;BME280;34170;54.364;18.582;2023-09-19T06:05:35;99210.41;;;20.30;100.00
48364;BME280;34170;54.364;18.582;2023-09-19T06:08:03;99227.31;;;20.63;100.00
48364;BME280;34170;54.364;18.582;2023-09-19T06:10:35;99231.09;;;20.50;100.00
48364;BME280;34170;54.364;18.582;2023-09-19T06:13:03;99228.47;;;20.43;100.00
48364;BME280;34170;54.364;18.582;2023-09-19T06:15:33;99219.97;;;20.63;100.00
48364;BME280;34170;54.364;18.582;2023-09-19T06:18:03;99232.66;;;20.93;100.00
48364;BME280;34170;54.364;18.582;2023-09-19T06:20:32;99232.31;;;20.89;100.00
48364;BME280;34170;54.364;18.582;2023-09-19T06:23:02;99232.91;;;20.80;100.00
48364;BME280;34170;54.364;18.582;2023-09-19T06:25:30;99231.00;;;20.68;100.00
48364;BME280;34170;54.364;18.582;2023-09-19T06:27:58;99231.47;;;20.65;100.00
48364;BME280;34170;54.364;18.582;2023-09-19T06:30:25;99238.38;;;20.68;100.00
48364;BME280;34170;54.364;18.582;2023-09-19T06:32:57;99249.44;;;20.73;100.00
48364;BME280;34170;54.364;18.582;2023-09-19T06:35:25;99241.31;;;20.78;100.00
48364;BME280;34170;54.364;18.582;2023-09-19T06:37:54;99236.81;;;20.72;100.00
48364;BME280;34170;54.364;18.582;2023-09-19T06:40:21;99237.75;;;21.13;100.00
48364;BME280;34170;54.364;18.582;2023-09-19T06:42:51;99243.75;;;21.62;100.00
48364;BME280;34170;54.364;18.582;2023-09-19T06:45:20;99252.69;;;22.03;100.00
48364;BME280;34170;54.364;18.582;2023-09-19T06:47:50;99251.88;;;22.32;100.00
48364;BME280;34170;54.364;18.582;2023-09-19T06:50:22;99252.97;;;22.31;100.00
48364;BME280;34170;54.364;18.582;2023-09-19T06:52:52;99248.38;;;21.90;100.00
48364;BME280;34170;54.364;18.582;2023-09-19T06:55:22;99254.91;;;21.61;100.00
48364;BME280;34170;54.364;18.582;2023-09-19T06:57:53;99244.72;;;21.32;100.00
48364;BME280;34170;54.364;18.582;2023-09-19T07:00:23;99245.84;;;20.96;100.00
48364;BME280;34170;54.364;18.582;2023-09-19T07:03:02;99245.94;;;21.01;100.00
48364;BME280;34170;54.364;18.582;2023-09-19T07:05:32;99241.81;;;21.10;100.00
48364;BME280;34170;54.364;18.582;2023-09-19T07:08:00;99258.06;;;21.17;100.00
48364;BME280;34170;54.364;18.582;2023-09-19T07:10:29;99247.50;;;21.09;100.00
48364;BME280;34170;54.364;18.582;2023-09-19T07:12:58;99261.84;;;21.28;100.00
48364;BME280;34170;54.364;18.582;2023-09-19T07:15:26;99252.25;;;21.13;100.00
48364;BME280;34170;54.364;18.582;2023-09-19T07:17:55;99249.94;;;21.46;100.00
48364;BME280;34170;54.364;18.582;2023-09-19T07:20:24;99247.34;;;21.80;100.00
48364;BME280;34170;54.364;18.582;2023-09-19T07:23:18;99246.84;;;22.57;100.00
48364;BME280;34170;54.364;18.582;2023-09-19T07:30:23;99263.22;;;23.47;98.03
48364;BME280;34170;54.364;18.582;2023-09-19T07:32:50;99273.72;;;23.55;98.01
48364;BME280;34170;54.364;18.582;2023-09-19T07:35:18;99264.81;;;23.43;97.14
48364;BME280;34170;54.364;18.582;2023-09-19T07:37:49;99258.56;;;23.26;98.59
48364;BME280;34170;54.364;18.582;2023-09-19T07:40:19;99266.75;;;22.70;100.00
48364;BME280;34170;54.364;18.582;2023-09-19T07:42:50;99259.94;;;22.38;100.00
48364;BME280;34170;54.364;18.582;2023-09-19T07:45:18;99251.38;;;22.35;100.00
48364;BME280;34170;54.364;18.582;2023-09-19T07:47:46;99266.25;;;21.81;100.00
48364;BME280;34170;54.364;18.582;2023-09-19T07:50:18;99260.66;;;21.88;100.00
48364;BME280;34170;54.364;18.582;2023-09-19T07:52:47;99275.72;;;21.90;100.00
48364;BME280;34170;54.364;18.582;2023-09-19T07:55:19;99274.47;;;22.10;100.00
48364;BME280;34170;54.364;18.582;2023-09-19T07:57:50;99258.31;;;22.25;100.00
48364;BME280;34170;54.364;18.582;2023-09-19T08:00:18;99267.59;;;22.70;100.00
48364;BME280;34170;54.364;18.582;2023-09-19T08:02:45;99268.16;;;22.55;100.00
48364;BME280;34170;54.364;18.582;2023-09-19T08:05:20;99277.19;;;22.39;100.00
48364;BME280;34170;54.364;18.582;2023-09-19T08:07:48;99273.97;;;22.13;100.00
48364;BME280;34170;54.364;18.582;2023-09-19T08:10:19;99281.13;;;22.43;100.00
48364;BME280;34170;54.364;18.582;2023-09-19T08:12:48;99283.44;;;23.63;93.49
48364;BME280;34170;54.364;18.582;2023-09-19T08:15:18;99282.81;;;24.54;86.93
48364;BME280;34170;54.364;18.582;2023-09-19T08:18:26;99283.16;;;26.17;75.34
48364;BME280;34170;54.364;18.582;2023-09-19T08:20:57;99290.13;;;27.92;66.54
48364;BME280;34170;54.364;18.582;2023-09-19T08:23:27;99296.38;;;28.53;62.11
48364;BME280;34170;54.364;18.582;2023-09-19T08:25:56;99303.50;;;28.64;59.65
48364;BME280;34170;54.364;18.582;2023-09-19T08:28:25;99296.25;;;29.03;56.16
48364;BME280;34170;54.364;18.582;2023-09-19T08:30:56;99303.16;;;30.02;52.89
48364;BME280;34170;54.364;18.582;2023-09-19T08:33:28;99304.97;;;30.12;51.85
48364;BME280;34170;54.364;18.582;2023-09-19T08:35:56;99306.75;;;28.71;55.98
48364;BME280;34170;54.364;18.582;2023-09-19T08:38:34;99314.75;;;27.73;59.59
48364;BME280;34170;54.364;18.582;2023-09-19T08:41:06;99322.38;;;26.86;65.05
48364;BME280;34170;54.364;18.582;2023-09-19T08:43:35;99323.72;;;26.52;66.65
48364;BME280;34170;54.364;18.582;2023-09-19T08:46:15;99309.63;;;26.28;67.74
48364;BME280;34170;54.364;18.582;2023-09-19T08:48:50;99316.84;;;27.32;62.55
48364;BME280;34170;54.364;18.582;2023-09-19T08:51:27;99319.88;;;27.35;61.37
48364;BME280;34170;54.364;18.582;2023-09-19T08:54:09;99312.72;;;28.05;57.41
48364;BME280;34170;54.364;18.582;2023-09-19T08:56:44;99330.19;;;29.67;52.66
48364;BME280;34170;54.364;18.582;2023-09-19T08:59:12;99328.47;;;31.23;47.28
48364;BME280;34170;54.364;18.582;2023-09-19T09:01:41;99329.22;;;29.28;49.67
48364;BME280;34170;54.364;18.582;2023-09-19T09:04:09;99337.50;;;29.58;49.66
48364;BME280;34170;54.364;18.582;2023-09-19T09:06:42;99338.22;;;29.44;50.47
48364;BME280;34170;54.364;18.582;2023-09-19T09:09:11;99350.69;;;29.90;48.46
48364;BME280;34170;54.364;18.582;2023-09-19T09:11:39;99339.47;;;30.63;46.16
48364;BME280;34170;54.364;18.582;2023-09-19T09:14:07;99336.72;;;32.25;41.82
48364;BME280;34170;54.364;18.582;2023-09-19T09:16:35;99345.19;;;32.20;41.35
48364;BME280;34170;54.364;18.582;2023-09-19T09:19:03;99336.47;;;30.21;43.77
48364;BME280;34170;54.364;18.582;2023-09-19T09:21:32;99335.69;;;29.96;46.73
48364;BME280;34170;54.364;18.582;2023-09-19T09:24:28;99343.97;;;30.39;44.94
48364;BME280;34170;54.364;18.582;2023-09-19T09:26:57;99345.78;;;30.06;46.03
48364;BME280;34170;54.364;18.582;2023-09-19T09:29:46;99364.13;;;32.32;40.61
48364;BME280;34170;54.364;18.582;2023-09-19T09:32:30;99359.94;;;31.93;40.61
48364;BME280;34170;54.364;18.582;2023-09-19T09:35:07;99362.31;;;29.92;45.65
48364;BME280;34170;54.364;18.582;2023-09-19T09:37:38;99353.97;;;28.85;48.22
48364;BME280;34170;54.364;18.582;2023-09-19T09:40:06;99360.75;;;28.14;50.95
48364;BME280;34170;54.364;18.582;2023-09-19T09:42:43;99357.09;;;27.38;54.28
48364;BME280;34170;54.364;18.582;2023-09-19T09:47:46;99357.72;;;28.16;52.91
48364;BME280;34170;54.364;18.582;2023-09-19T09:50:32;99372.91;;;28.68;49.09
48364;BME280;34170;54.364;18.582;2023-09-19T09:53:22;99348.19;;;29.40;46.48
48364;BME280;34170;54.364;18.582;2023-09-19T09:56:05;99350.22;;;29.00;45.89
48364;BME280;34170;54.364;18.582;2023-09-19T09:58:38;99371.72;;;29.14;45.58
48364;BME280;34170;54.364;18.582;2023-09-19T10:01:07;99361.41;;;29.24;44.71
48364;BME280;34170;54.364;18.582;2023-09-19T10:03:43;99370.03;;;28.33;47.15
48364;BME280;34170;54.364;18.582;2023-09-19T10:06:16;99368.72;;;26.89;51.29
48364;BME280;34170;54.364;18.582;2023-09-19T10:09:06;99370.38;;;26.69;53.51
48364;BME280;34170;54.364;18.582;2023-09-19T10:12:03;99371.09;;;26.39;54.41
48364;BME280;34170;54.364;18.582;2023-09-19T10:14:35;99378.00;;;25.25;59.47
48364;BME280;34170;54.364;18.582;2023-09-19T10:17:05;99387.97;;;24.72;62.79
48364;BME280;34170;54.364;18.582;2023-09-19T10:19:42;99386.63;;;24.25;65.06
48364;BME280;34170;54.364;18.582;2023-09-19T10:22:14;99399.44;;;23.75;67.72
48364;BME280;34170;54.364;18.582;2023-09-19T10:24:55;99392.16;;;24.80;61.30
48364;BME280;34170;54.364;18.582;2023-09-19T10:27:30;99387.19;;;26.73;53.69
48364;BME280;34170;54.364;18.582;2023-09-19T10:30:06;99408.50;;;28.25;48.96
48364;BME280;34170;54.364;18.582;2023-09-19T10:32:35;99415.59;;;28.46;47.53
48364;BME280;34170;54.364;18.582;2023-09-19T10:35:07;99408.28;;;28.16;47.77
48364;BME280;34170;54.364;18.582;2023-09-19T10:37:37;99387.47;;;26.71;50.15
48364;BME280;34170;54.364;18.582;2023-09-19T10:40:07;99391.03;;;26.72;51.68
48364;BME280;34170;54.364;18.582;2023-09-19T10:42:38;99391.91;;;27.39;50.16
48364;BME280;34170;54.364;18.582;2023-09-19T10:45:09;99390.03;;;28.70;46.66
48364;BME280;34170;54.364;18.582;2023-09-19T10:47:40;99382.47;;;28.31;45.89
48364;BME280;34170;54.364;18.582;2023-09-19T10:50:19;99383.44;;;30.31;42.87
48364;BME280;34170;54.364;18.582;2023-09-19T10:52:50;99387.88;;;29.60;42.23
48364;BME280;34170;54.364;18.582;2023-09-19T10:55:27;99398.63;;;30.77;40.03
48364;BME280;34170;54.364;18.582;2023-09-19T10:57:56;99403.13;;;30.11;39.42
48364;BME280;34170;54.364;18.582;2023-09-19T11:00:55;99399.06;;;30.65;37.56
48364;BME280;34170;54.364;18.582;2023-09-19T11:03:23;99395.09;;;29.85;39.40
48364;BME280;34170;54.364;18.582;2023-09-19T11:08:59;99393.75;;;26.51;46.56
48364;BME280;34170;54.364;18.582;2023-09-19T11:11:45;99388.44;;;26.24;49.25
48364;BME280;34170;54.364;18.582;2023-09-19T11:30:50;99412.38;;;26.18;49.97
48364;BME280;34170;54.364;18.582;2023-09-19T11:33:28;99411.94;;;26.57;48.39
48364;BME280;34170;54.364;18.582;2023-09-19T11:43:48;99412.34;;;26.08;46.96
48364;BME280;34170;54.364;18.582;2023-09-19T11:46:21;99407.13;;;26.22;47.54
48364;BME280;34170;54.364;18.582;2023-09-19T11:48:50;99410.00;;;25.90;48.30
48364;BME280;34170;54.364;18.582;2023-09-19T11:51:22;99422.06;;;26.31;49.69
48364;BME280;34170;54.364;18.582;2023-09-19T11:53:56;99426.72;;;26.20;49.29
48364;BME280;34170;54.364;18.582;2023-09-19T11:56:27;99436.88;;;26.10;50.29
48364;BME280;34170;54.364;18.582;2023-09-19T11:58:56;99436.84;;;26.04;49.65
48364;BME280;34170;54.364;18.582;2023-09-19T12:01:30;99429.28;;;25.84;49.67
48364;BME280;34170;54.364;18.582;2023-09-19T12:04:01;99442.41;;;25.72;50.42
48364;BME280;34170;54.364;18.582;2023-09-19T12:06:30;99445.59;;;25.96;49.29
48364;BME280;34170;54.364;18.582;2023-09-19T12:09:02;99436.47;;;25.48;49.27
48364;BME280;34170;54.364;18.582;2023-09-19T12:11:41;99446.59;;;25.10;51.49
48364;BME280;34170;54.364;18.582;2023-09-19T12:15:42;99445.03;;;25.52;49.10
48364;BME280;34170;54.364;18.582;2023-09-19T12:20:56;99446.72;;;24.66;49.11
48364;BME280;34170;54.364;18.582;2023-09-19T12:23:25;99459.50;;;24.77;50.64
48364;BME280;34170;54.364;18.582;2023-09-19T12:25:54;99459.81;;;24.81;50.99
48364;BME280;34170;54.364;18.582;2023-09-19T12:28:26;99464.22;;;24.38;52.92
48364;BME280;34170;54.364;18.582;2023-09-19T12:30:54;99465.63;;;24.40;53.02
48364;BME280;34170;54.364;18.582;2023-09-19T12:33:23;99468.16;;;23.81;52.92
48364;BME280;34170;54.364;18.582;2023-09-19T12:35:53;99470.09;;;23.00;57.43
48364;BME280;34170;54.364;18.582;2023-09-19T12:38:25;99474.03;;;23.89;56.20
48364;BME280;34170;54.364;18.582;2023-09-19T12:40:56;99473.78;;;23.57;57.05
48364;BME280;34170;54.364;18.582;2023-09-19T12:43:28;99476.97;;;23.83;56.37
48364;BME280;34170;54.364;18.582;2023-09-19T12:46:00;99482.34;;;23.60;56.05
48364;BME280;34170;54.364;18.582;2023-09-19T12:48:28;99488.41;;;23.63;57.25
48364;BME280;34170;54.364;18.582;2023-09-19T12:51:03;99487.16;;;23.87;55.64
48364;BME280;34170;54.364;18.582;2023-09-19T12:53:45;99478.63;;;23.67;55.64
48364;BME280;34170;54.364;18.582;2023-09-19T12:56:15;99494.97;;;23.78;56.61
48364;BME280;34170;54.364;18.582;2023-09-19T12:58:58;99492.19;;;23.73;56.75
48364;BME280;34170;54.364;18.582;2023-09-19T13:01:30;99485.22;;;24.05;56.09
48364;BME280;34170;54.364;18.582;2023-09-19T13:06:48;99487.56;;;23.96;54.23
48364;BME280;34170;54.364;18.582;2023-09-19T13:09:18;99480.75;;;23.98;54.93
48364;BME280;34170;54.364;18.582;2023-09-19T13:11:48;99480.59;;;23.71;52.46
48364;BME280;34170;54.364;18.582;2023-09-19T13:14:26;99488.59;;;23.90;52.94
48364;BME280;34170;54.364;18.582;2023-09-19T13:17:08;99484.34;;;23.48;51.69
48364;BME280;34170;54.364;18.582;2023-09-19T13:19:48;99483.94;;;23.22;50.95
48364;BME280;34170;54.364;18.582;2023-09-19T13:22:56;99487.19;;;23.36;51.89
48364;BME280;34170;54.364;18.582;2023-09-19T13:25:28;99476.97;;;23.03;54.13
48364;BME280;34170;54.364;18.582;2023-09-19T13:27:59;99478.88;;;23.65;51.38
48364;BME280;34170;54.364;18.582;2023-09-19T13:30:27;99478.78;;;23.77;50.93
48364;BME280;34170;54.364;18.582;2023-09-19T13:33:09;99477.63;;;23.90;49.63
48364;BME280;34170;54.364;18.582;2023-09-19T13:35:38;99474.78;;;23.68;49.81
48364;BME280;34170;54.364;18.582;2023-09-19T13:38:08;99481.53;;;23.26;50.66
48364;BME280;34170;54.364;18.582;2023-09-19T13:40:39;99483.09;;;23.39;50.49
48364;BME280;34170;54.364;18.582;2023-09-19T13:43:09;99491.91;;;23.41;51.07
48364;BME280;34170;54.364;18.582;2023-09-19T13:45:39;99493.06;;;23.28;50.64
48364;BME280;34170;54.364;18.582;2023-09-19T13:48:09;99492.31;;;23.16;49.56
48364;BME280;34170;54.364;18.582;2023-09-19T13:50:38;99491.69;;;23.26;48.83
48364;BME280;34170;54.364;18.582;2023-09-19T13:53:09;99489.41;;;23.06;47.62
48364;BME280;34170;54.364;18.582;2023-09-19T13:55:37;99498.09;;;23.02;48.19
48364;BME280;34170;54.364;18.582;2023-09-19T13:58:05;99491.28;;;22.76;48.69